sensor_id;sensor_type;location;lat;lon;timestamp;P1;durP1;ratioP1;P2;durP2;ratioP2
14241;SDS011;7205;50.864;12.766;2024-01-07T00:02:06;153.77;;;23.93;;
14241;SDS011;7205;50.864;12.766;2024-01-07T00:04:33;276.83;;;25.87;;
14241;SDS011;7205;50.864;12.766;2024-01-07T00:07:00;250.93;;;27.57;;
14241;SDS011;7205;50.864;12.766;2024-01-07T00:09:27;145.30;;;22.17;;
14241;SDS011;7205;50.864;12.766;2024-01-07T00:11:54;241.43;;;27.07;;
14241;SDS011;7205;50.864;12.766;2024-01-07T00:14:20;168.17;;;21.90;;
14241;SDS011;7205;50.864;12.766;2024-01-07T00:16:49;121.63;;;24.03;;
14241;SDS011;7205;50.864;12.766;2024-01-07T00:19:16;126.53;;;21.33;;
14241;SDS011;7205;50.864;12.766;2024-01-07T00:21:42;157.00;;;23.73;;
14241;SDS011;7205;50.864;12.766;2024-01-07T00:24:09;158.00;;;23.63;;
14241;SDS011;7205;50.864;12.766;2024-01-07T00:26:36;154.33;;;24.03;;
14241;SDS011;7205;50.864;12.766;2024-01-07T00:29:03;206.50;;;23.37;;
14241;SDS011;7205;50.864;12.766;2024-01-07T00:31:30;210.90;;;23.20;;
14241;SDS011;7205;50.864;12.766;2024-01-07T00:33:58;299.20;;;31.03;;
14241;SDS011;7205;50.864;12.766;2024-01-07T00:36:25;181.67;;;26.23;;
14241;SDS011;7205;50.864;12.766;2024-01-07T00:38:51;243.17;;;25.90;;
14241;SDS011;7205;50.864;12.766;2024-01-07T00:41:18;104.30;;;23.37;;
14241;SDS011;7205;50.864;12.766;2024-01-07T00:43:45;54.07;;;21.13;;
14241;SDS011;7205;50.864;12.766;2024-01-07T00:46:12;40.30;;;18.30;;
14241;SDS011;7205;50.864;12.766;2024-01-07T00:48:39;39.27;;;18.43;;
14241;SDS011;7205;50.864;12.766;2024-01-07T00:51:07;31.00;;;15.47;;
14241;SDS011;7205;50.864;12.766;2024-01-07T00:53:34;32.90;;;16.67;;
14241;SDS011;7205;50.864;12.766;2024-01-07T00:56:01;30.17;;;16.73;;
14241;SDS011;7205;50.864;12.766;2024-01-07T00:58:27;31.43;;;16.37;;
14241;SDS011;7205;50.864;12.766;2024-01-07T01:00:54;28.00;;;15.07;;
14241;SDS011;7205;50.864;12.766;2024-01-07T01:03:21;23.93;;;14.70;;
14241;SDS011;7205;50.864;12.766;2024-01-07T01:05:48;28.17;;;15.83;;
14241;SDS011;7205;50.864;12.766;2024-01-07T01:08:17;30.87;;;17.17;;
14241;SDS011;7205;50.864;12.766;2024-01-07T01:10:43;26.20;;;15.77;;
14241;SDS011;7205;50.864;12.766;2024-01-07T01:13:10;25.10;;;15.60;;
14241;SDS011;7205;50.864;12.766;2024-01-07T01:15:37;22.73;;;14.40;;
14241;SDS011;7205;50.864;12.766;2024-01-07T01:18:04;25.80;;;16.70;;
14241;SDS011;7205;50.864;12.766;2024-01-07T01:20:31;26.83;;;17.00;;
14241;SDS011;7205;50.864;12.766;2024-01-07T01:22:58;23.33;;;15.73;;
14241;SDS011;7205;50.864;12.766;2024-01-07T01:25:26;28.83;;;17.13;;
14241;SDS011;7205;50.864;12.766;2024-01-07T01:27:55;29.77;;;17.30;;
14241;SDS011;7205;50.864;12.766;2024-01-07T01:30:22;29.63;;;18.53;;
14241;SDS011;7205;50.864;12.766;2024-01-07T01:32:49;34.73;;;19.33;;
14241;SDS011;7205;50.864;12.766;2024-01-07T01:35:15;27.30;;;17.33;;
14241;SDS011;7205;50.864;12.766;2024-01-07T01:37:42;33.47;;;20.27;;
14241;SDS011;7205;50.864;12.766;2024-01-07T01:40:09;32.70;;;18.73;;
14241;SDS011;7205;50.864;12.766;2024-01-07T01:42:38;29.90;;;18.50;;
14241;SDS011;7205;50.864;12.766;2024-01-07T01:45:09;34.20;;;20.17;;
14241;SDS011;7205;50.864;12.766;2024-01-07T01:47:35;35.07;;;20.57;;
14241;SDS011;7205;50.864;12.766;2024-01-07T01:50:03;35.87;;;19.50;;
14241;SDS011;7205;50.864;12.766;2024-01-07T01:52:31;27.43;;;17.57;;
14241;SDS011;7205;50.864;12.766;2024-01-07T01:54:58;31.83;;;19.10;;
14241;SDS011;7205;50.864;12.766;2024-01-07T01:57:28;25.63;;;16.00;;
14241;SDS011;7205;50.864;12.766;2024-01-07T02:00:01;29.07;;;17.90;;
14241;SDS011;7205;50.864;12.766;2024-01-07T02:02:30;30.50;;;19.30;;
14241;SDS011;7205;50.864;12.766;2024-01-07T02:04:59;37.20;;;17.60;;
14241;SDS011;7205;50.864;12.766;2024-01-07T02:07:26;33.40;;;19.27;;
14241;SDS011;7205;50.864;12.766;2024-01-07T02:09:54;35.77;;;18.43;;
14241;SDS011;7205;50.864;12.766;2024-01-07T02:12:21;23.50;;;16.43;;
14241;SDS011;7205;50.864;12.766;2024-01-07T02:14:48;26.20;;;16.23;;
14241;SDS011;7205;50.864;12.766;2024-01-07T02:17:16;28.90;;;16.87;;
14241;SDS011;7205;50.864;12.766;2024-01-07T02:19:44;30.30;;;18.00;;
14241;SDS011;7205;50.864;12.766;2024-01-07T02:22:11;35.80;;;19.07;;
14241;SDS011;7205;50.864;12.766;2024-01-07T02:24:40;35.80;;;19.77;;
14241;SDS011;7205;50.864;12.766;2024-01-07T02:27:07;38.00;;;20.23;;
14241;SDS011;7205;50.864;12.766;2024-01-07T02:29:33;36.87;;;20.83;;
14241;SDS011;7205;50.864;12.766;2024-01-07T02:32:00;32.60;;;19.40;;
14241;SDS011;7205;50.864;12.766;2024-01-07T02:34:27;31.23;;;18.80;;
14241;SDS011;7205;50.864;12.766;2024-01-07T02:36:54;28.73;;;17.83;;
14241;SDS011;7205;50.864;12.766;2024-01-07T02:39:21;30.30;;;18.20;;
14241;SDS011;7205;50.864;12.766;2024-01-07T02:41:50;36.83;;;19.30;;
14241;SDS011;7205;50.864;12.766;2024-01-07T02:44:17;34.57;;;19.20;;
14241;SDS011;7205;50.864;12.766;2024-01-07T02:46:43;33.93;;;20.37;;
14241;SDS011;7205;50.864;12.766;2024-01-07T02:49:11;23.90;;;14.90;;
14241;SDS011;7205;50.864;12.766;2024-01-07T02:51:38;27.20;;;16.03;;
14241;SDS011;7205;50.864;12.766;2024-01-07T02:54:05;32.67;;;17.07;;
14241;SDS011;7205;50.864;12.766;2024-01-07T02:56:32;27.20;;;15.60;;
14241;SDS011;7205;50.864;12.766;2024-01-07T02:59:00;24.30;;;15.63;;
14241;SDS011;7205;50.864;12.766;2024-01-07T03:01:27;29.50;;;16.93;;
14241;SDS011;7205;50.864;12.766;2024-01-07T03:03:54;25.70;;;14.63;;
14241;SDS011;7205;50.864;12.766;2024-01-07T03:06:21;21.87;;;14.67;;
14241;SDS011;7205;50.864;12.766;2024-01-07T03:08:48;23.20;;;15.20;;
14241;SDS011;7205;50.864;12.766;2024-01-07T03:11:15;17.37;;;10.97;;
14241;SDS011;7205;50.864;12.766;2024-01-07T03:13:41;21.20;;;12.63;;
14241;SDS011;7205;50.864;12.766;2024-01-07T03:16:18;20.20;;;13.40;;
14241;SDS011;7205;50.864;12.766;2024-01-07T03:18:45;28.13;;;15.10;;
14241;SDS011;7205;50.864;12.766;2024-01-07T03:21:16;23.70;;;14.73;;
14241;SDS011;7205;50.864;12.766;2024-01-07T03:23:43;24.73;;;14.53;;
14241;SDS011;7205;50.864;12.766;2024-01-07T03:26:10;23.23;;;14.70;;
14241;SDS011;7205;50.864;12.766;2024-01-07T03:28:37;24.70;;;14.97;;
14241;SDS011;7205;50.864;12.766;2024-01-07T03:31:04;24.67;;;15.10;;
14241;SDS011;7205;50.864;12.766;2024-01-07T03:33:33;25.03;;;15.60;;
14241;SDS011;7205;50.864;12.766;2024-01-07T03:36:00;26.73;;;15.87;;
14241;SDS011;7205;50.864;12.766;2024-01-07T03:38:26;27.97;;;15.93;;
14241;SDS011;7205;50.864;12.766;2024-01-07T03:40:53;25.13;;;16.47;;
14241;SDS011;7205;50.864;12.766;2024-01-07T03:43:20;31.30;;;15.73;;
14241;SDS011;7205;50.864;12.766;2024-01-07T03:45:47;32.97;;;14.93;;
14241;SDS011;7205;50.864;12.766;2024-01-07T03:48:14;28.50;;;16.50;;
14241;SDS011;7205;50.864;12.766;2024-01-07T03:50:43;28.67;;;15.00;;
14241;SDS011;7205;50.864;12.766;2024-01-07T03:56:04;25.33;;;15.87;;
14241;SDS011;7205;50.864;12.766;2024-01-07T03:58:32;25.93;;;15.67;;
14241;SDS011;7205;50.864;12.766;2024-01-07T04:00:59;28.87;;;16.47;;
14241;SDS011;7205;50.864;12.766;2024-01-07T04:03:27;23.60;;;15.57;;
14241;SDS011;7205;50.864;12.766;2024-01-07T04:05:56;24.30;;;13.97;;
14241;SDS011;7205;50.864;12.766;2024-01-07T04:08:23;24.77;;;15.73;;
14241;SDS011;7205;50.864;12.766;2024-01-07T04:10:50;21.43;;;13.13;;
14241;SDS011;7205;50.864;12.766;2024-01-07T04:13:18;28.60;;;14.70;;
14241;SDS011;7205;50.864;12.766;2024-01-07T04:15:45;25.03;;;14.23;;
14241;SDS011;7205;50.864;12.766;2024-01-07T04:18:13;29.43;;;16.33;;
14241;SDS011;7205;50.864;12.766;2024-01-07T04:20:40;24.00;;;15.00;;
14241;SDS011;7205;50.864;12.766;2024-01-07T04:23:08;31.00;;;16.10;;
14241;SDS011;7205;50.864;12.766;2024-01-07T04:25:36;27.20;;;15.93;;
14241;SDS011;7205;50.864;12.766;2024-01-07T04:28:03;24.53;;;15.10;;
14241;SDS011;7205;50.864;12.766;2024-01-07T04:30:30;23.20;;;14.77;;
14241;SDS011;7205;50.864;12.766;2024-01-07T04:32:57;25.00;;;14.60;;
14241;SDS011;7205;50.864;12.766;2024-01-07T04:35:24;27.57;;;13.77;;
14241;SDS011;7205;50.864;12.766;2024-01-07T04:37:51;23.87;;;13.60;;
14241;SDS011;7205;50.864;12.766;2024-01-07T04:40:20;24.03;;;14.93;;
14241;SDS011;7205;50.864;12.766;2024-01-07T04:42:47;17.00;;;11.20;;
14241;SDS011;7205;50.864;12.766;2024-01-07T04:45:17;21.03;;;12.63;;
14241;SDS011;7205;50.864;12.766;2024-01-07T04:47:43;18.53;;;12.03;;
14241;SDS011;7205;50.864;12.766;2024-01-07T04:50:13;19.03;;;12.03;;
14241;SDS011;7205;50.864;12.766;2024-01-07T04:52:40;19.77;;;13.37;;
14241;SDS011;7205;50.864;12.766;2024-01-07T04:55:07;21.87;;;13.30;;
14241;SDS011;7205;50.864;12.766;2024-01-07T04:57:36;23.77;;;12.47;;
14241;SDS011;7205;50.864;12.766;2024-01-07T05:00:03;22.30;;;12.60;;
14241;SDS011;7205;50.864;12.766;2024-01-07T05:02:31;20.37;;;12.30;;
14241;SDS011;7205;50.864;12.766;2024-01-07T05:04:58;22.03;;;12.30;;
14241;SDS011;7205;50.864;12.766;2024-01-07T05:07:25;17.03;;;10.30;;
14241;SDS011;7205;50.864;12.766;2024-01-07T05:09:51;20.53;;;12.50;;
14241;SDS011;7205;50.864;12.766;2024-01-07T05:12:20;18.80;;;11.33;;
14241;SDS011;7205;50.864;12.766;2024-01-07T05:14:51;18.77;;;11.57;;
14241;SDS011;7205;50.864;12.766;2024-01-07T05:17:18;18.43;;;11.20;;
14241;SDS011;7205;50.864;12.766;2024-01-07T05:19:45;18.77;;;12.03;;
14241;SDS011;7205;50.864;12.766;2024-01-07T05:22:12;17.93;;;9.40;;
14241;SDS011;7205;50.864;12.766;2024-01-07T05:24:39;18.33;;;11.27;;
14241;SDS011;7205;50.864;12.766;2024-01-07T05:27:06;14.20;;;9.90;;
14241;SDS011;7205;50.864;12.766;2024-01-07T05:29:33;16.13;;;9.83;;
14241;SDS011;7205;50.864;12.766;2024-01-07T05:32:04;13.83;;;9.90;;
14241;SDS011;7205;50.864;12.766;2024-01-07T05:34:32;14.73;;;9.33;;
14241;SDS011;7205;50.864;12.766;2024-01-07T05:36:58;15.03;;;10.20;;
14241;SDS011;7205;50.864;12.766;2024-01-07T05:39:25;15.53;;;9.80;;
14241;SDS011;7205;50.864;12.766;2024-01-07T05:41:52;15.10;;;9.73;;
14241;SDS011;7205;50.864;12.766;2024-01-07T05:44:19;18.23;;;10.83;;
14241;SDS011;7205;50.864;12.766;2024-01-07T05:46:46;17.70;;;10.50;;
14241;SDS011;7205;50.864;12.766;2024-01-07T05:49:14;13.83;;;10.07;;
14241;SDS011;7205;50.864;12.766;2024-01-07T05:51:41;17.23;;;11.30;;
14241;SDS011;7205;50.864;12.766;2024-01-07T05:54:07;15.07;;;10.00;;
14241;SDS011;7205;50.864;12.766;2024-01-07T05:56:38;15.87;;;10.07;;
14241;SDS011;7205;50.864;12.766;2024-01-07T05:59:05;12.43;;;8.90;;
14241;SDS011;7205;50.864;12.766;2024-01-07T06:01:32;13.23;;;8.77;;
14241;SDS011;7205;50.864;12.766;2024-01-07T06:03:59;16.00;;;10.33;;
14241;SDS011;7205;50.864;12.766;2024-01-07T06:06:27;13.40;;;8.47;;
14241;SDS011;7205;50.864;12.766;2024-01-07T06:08:54;11.70;;;7.80;;
14241;SDS011;7205;50.864;12.766;2024-01-07T06:11:21;15.60;;;9.70;;
14241;SDS011;7205;50.864;12.766;2024-01-07T06:13:47;13.33;;;8.47;;
14241;SDS011;7205;50.864;12.766;2024-01-07T06:16:14;14.60;;;9.37;;
14241;SDS011;7205;50.864;12.766;2024-01-07T06:18:41;16.97;;;9.33;;
14241;SDS011;7205;50.864;12.766;2024-01-07T06:21:08;15.20;;;9.83;;
14241;SDS011;7205;50.864;12.766;2024-01-07T06:23:36;15.40;;;9.70;;
14241;SDS011;7205;50.864;12.766;2024-01-07T06:26:03;23.57;;;10.73;;
14241;SDS011;7205;50.864;12.766;2024-01-07T06:28:31;12.60;;;8.97;;
14241;SDS011;7205;50.864;12.766;2024-01-07T06:30:58;14.97;;;9.70;;
14241;SDS011;7205;50.864;12.766;2024-01-07T06:33:25;17.37;;;10.30;;
14241;SDS011;7205;50.864;12.766;2024-01-07T06:35:51;15.30;;;9.03;;
14241;SDS011;7205;50.864;12.766;2024-01-07T06:38:18;12.67;;;8.77;;
14241;SDS011;7205;50.864;12.766;2024-01-07T06:40:46;14.10;;;9.23;;
14241;SDS011;7205;50.864;12.766;2024-01-07T06:43:13;13.57;;;8.90;;
14241;SDS011;7205;50.864;12.766;2024-01-07T06:45:40;16.67;;;9.60;;
14241;SDS011;7205;50.864;12.766;2024-01-07T06:48:07;10.50;;;7.33;;
14241;SDS011;7205;50.864;12.766;2024-01-07T06:50:34;13.27;;;8.83;;
14241;SDS011;7205;50.864;12.766;2024-01-07T06:53:01;13.07;;;8.90;;
14241;SDS011;7205;50.864;12.766;2024-01-07T06:55:28;16.00;;;8.97;;
14241;SDS011;7205;50.864;12.766;2024-01-07T06:57:56;12.17;;;8.63;;
14241;SDS011;7205;50.864;12.766;2024-01-07T07:00:23;12.50;;;7.47;;
14241;SDS011;7205;50.864;12.766;2024-01-07T07:02:49;10.70;;;8.47;;
14241;SDS011;7205;50.864;12.766;2024-01-07T07:05:16;12.93;;;8.73;;
14241;SDS011;7205;50.864;12.766;2024-01-07T07:07:43;17.20;;;9.07;;
14241;SDS011;7205;50.864;12.766;2024-01-07T07:10:10;8.30;;;6.70;;
14241;SDS011;7205;50.864;12.766;2024-01-07T07:12:37;10.17;;;6.97;;
14241;SDS011;7205;50.864;12.766;2024-01-07T07:15:06;9.70;;;7.13;;
14241;SDS011;7205;50.864;12.766;2024-01-07T07:17:34;9.20;;;7.10;;
14241;SDS011;7205;50.864;12.766;2024-01-07T07:20:02;10.67;;;7.37;;
14241;SDS011;7205;50.864;12.766;2024-01-07T07:22:29;9.97;;;7.67;;
14241;SDS011;7205;50.864;12.766;2024-01-07T07:24:55;14.43;;;8.70;;
14241;SDS011;7205;50.864;12.766;2024-01-07T07:27:22;9.27;;;6.93;;
14241;SDS011;7205;50.864;12.766;2024-01-07T07:29:49;9.50;;;6.77;;
14241;SDS011;7205;50.864;12.766;2024-01-07T07:32:17;9.63;;;6.30;;
14241;SDS011;7205;50.864;12.766;2024-01-07T07:34:44;12.40;;;6.47;;
14241;SDS011;7205;50.864;12.766;2024-01-07T07:37:12;115.57;;;14.87;;
14241;SDS011;7205;50.864;12.766;2024-01-07T07:39:39;11.23;;;7.03;;
14241;SDS011;7205;50.864;12.766;2024-01-07T07:42:06;7.13;;;6.07;;
14241;SDS011;7205;50.864;12.766;2024-01-07T07:44:33;10.53;;;7.07;;
14241;SDS011;7205;50.864;12.766;2024-01-07T07:46:59;10.37;;;6.97;;
14241;SDS011;7205;50.864;12.766;2024-01-07T07:49:28;11.57;;;6.10;;
14241;SDS011;7205;50.864;12.766;2024-01-07T07:51:55;8.97;;;6.07;;
14241;SDS011;7205;50.864;12.766;2024-01-07T07:54:22;7.73;;;5.40;;
14241;SDS011;7205;50.864;12.766;2024-01-07T07:56:49;8.43;;;5.73;;
14241;SDS011;7205;50.864;12.766;2024-01-07T07:59:19;6.90;;;5.47;;
14241;SDS011;7205;50.864;12.766;2024-01-07T08:01:46;10.93;;;5.57;;
14241;SDS011;7205;50.864;12.766;2024-01-07T08:04:15;8.80;;;5.90;;
14241;SDS011;7205;50.864;12.766;2024-01-07T08:06:44;8.10;;;6.60;;
14241;SDS011;7205;50.864;12.766;2024-01-07T08:09:13;7.53;;;6.23;;
14241;SDS011;7205;50.864;12.766;2024-01-07T08:11:40;7.23;;;5.93;;
14241;SDS011;7205;50.864;12.766;2024-01-07T08:14:06;8.63;;;5.23;;
14241;SDS011;7205;50.864;12.766;2024-01-07T08:16:34;5.73;;;5.13;;
14241;SDS011;7205;50.864;12.766;2024-01-07T08:19:03;7.33;;;5.70;;
14241;SDS011;7205;50.864;12.766;2024-01-07T08:21:33;8.43;;;6.13;;
14241;SDS011;7205;50.864;12.766;2024-01-07T08:24:03;6.27;;;5.13;;
14241;SDS011;7205;50.864;12.766;2024-01-07T08:26:30;7.10;;;5.73;;
14241;SDS011;7205;50.864;12.766;2024-01-07T08:28:57;6.13;;;4.87;;
14241;SDS011;7205;50.864;12.766;2024-01-07T08:31:24;6.07;;;4.67;;
14241;SDS011;7205;50.864;12.766;2024-01-07T08:33:51;6.67;;;5.13;;
14241;SDS011;7205;50.864;12.766;2024-01-07T08:36:18;7.77;;;5.43;;
14241;SDS011;7205;50.864;12.766;2024-01-07T08:38:45;5.77;;;5.17;;
14241;SDS011;7205;50.864;12.766;2024-01-07T08:41:15;6.60;;;5.27;;
14241;SDS011;7205;50.864;12.766;2024-01-07T08:43:42;5.87;;;4.80;;
14241;SDS011;7205;50.864;12.766;2024-01-07T08:46:09;5.30;;;4.63;;
14241;SDS011;7205;50.864;12.766;2024-01-07T08:48:35;6.40;;;5.00;;
14241;SDS011;7205;50.864;12.766;2024-01-07T08:51:03;7.40;;;4.23;;
14241;SDS011;7205;50.864;12.766;2024-01-07T08:53:30;4.63;;;4.13;;
14241;SDS011;7205;50.864;12.766;2024-01-07T08:55:57;7.53;;;4.87;;
14241;SDS011;7205;50.864;12.766;2024-01-07T08:58:26;5.83;;;4.63;;
14241;SDS011;7205;50.864;12.766;2024-01-07T09:00:52;5.90;;;5.30;;
14241;SDS011;7205;50.864;12.766;2024-01-07T09:03:19;6.50;;;5.30;;
14241;SDS011;7205;50.864;12.766;2024-01-07T09:05:46;5.73;;;4.80;;
14241;SDS011;7205;50.864;12.766;2024-01-07T09:08:13;6.90;;;5.50;;
14241;SDS011;7205;50.864;12.766;2024-01-07T09:10:40;5.83;;;5.27;;
14241;SDS011;7205;50.864;12.766;2024-01-07T09:13:09;5.57;;;4.97;;
14241;SDS011;7205;50.864;12.766;2024-01-07T09:15:37;5.50;;;4.90;;
14241;SDS011;7205;50.864;12.766;2024-01-07T09:18:05;4.83;;;4.30;;
14241;SDS011;7205;50.864;12.766;2024-01-07T09:20:32;5.73;;;3.77;;
14241;SDS011;7205;50.864;12.766;2024-01-07T09:22:59;4.87;;;4.37;;
14241;SDS011;7205;50.864;12.766;2024-01-07T09:25:26;5.47;;;4.70;;
14241;SDS011;7205;50.864;12.766;2024-01-07T09:27:54;4.33;;;3.60;;
14241;SDS011;7205;50.864;12.766;2024-01-07T09:30:21;4.40;;;4.00;;
14241;SDS011;7205;50.864;12.766;2024-01-07T09:32:49;4.47;;;4.07;;
14241;SDS011;7205;50.864;12.766;2024-01-07T09:35:16;4.93;;;4.03;;
14241;SDS011;7205;50.864;12.766;2024-01-07T09:37:43;5.13;;;3.40;;
14241;SDS011;7205;50.864;12.766;2024-01-07T09:40:11;4.27;;;3.83;;
14241;SDS011;7205;50.864;12.766;2024-01-07T09:42:38;3.97;;;3.60;;
14241;SDS011;7205;50.864;12.766;2024-01-07T09:45:05;4.17;;;3.77;;
14241;SDS011;7205;50.864;12.766;2024-01-07T09:47:33;4.00;;;3.70;;
14241;SDS011;7205;50.864;12.766;2024-01-07T09:50:03;3.40;;;3.10;;
14241;SDS011;7205;50.864;12.766;2024-01-07T09:52:30;4.00;;;3.30;;
14241;SDS011;7205;50.864;12.766;2024-01-07T09:55:02;3.17;;;2.97;;
14241;SDS011;7205;50.864;12.766;2024-01-07T09:57:30;3.33;;;2.87;;
14241;SDS011;7205;50.864;12.766;2024-01-07T09:59:57;3.10;;;2.90;;
14241;SDS011;7205;50.864;12.766;2024-01-07T10:02:24;3.07;;;2.77;;
14241;SDS011;7205;50.864;12.766;2024-01-07T10:04:50;2.67;;;2.47;;
14241;SDS011;7205;50.864;12.766;2024-01-07T10:07:18;3.47;;;3.17;;
14241;SDS011;7205;50.864;12.766;2024-01-07T10:09:45;3.30;;;3.10;;
14241;SDS011;7205;50.864;12.766;2024-01-07T10:12:18;3.23;;;3.03;;
14241;SDS011;7205;50.864;12.766;2024-01-07T10:14:49;2.60;;;2.10;;
14241;SDS011;7205;50.864;12.766;2024-01-07T10:17:16;3.13;;;2.83;;
14241;SDS011;7205;50.864;12.766;2024-01-07T10:19:44;5.60;;;2.77;;
14241;SDS011;7205;50.864;12.766;2024-01-07T10:22:12;3.47;;;2.50;;
14241;SDS011;7205;50.864;12.766;2024-01-07T10:24:41;3.03;;;2.63;;
14241;SDS011;7205;50.864;12.766;2024-01-07T10:27:09;3.17;;;2.97;;
14241;SDS011;7205;50.864;12.766;2024-01-07T10:29:36;3.20;;;2.90;;
14241;SDS011;7205;50.864;12.766;2024-01-07T10:32:04;3.00;;;2.80;;
14241;SDS011;7205;50.864;12.766;2024-01-07T10:34:34;3.47;;;2.97;;
14241;SDS011;7205;50.864;12.766;2024-01-07T10:37:02;3.10;;;2.80;;
14241;SDS011;7205;50.864;12.766;2024-01-07T10:39:31;2.77;;;2.57;;
14241;SDS011;7205;50.864;12.766;2024-01-07T10:41:59;3.50;;;2.97;;
14241;SDS011;7205;50.864;12.766;2024-01-07T10:44:26;3.50;;;3.17;;
14241;SDS011;7205;50.864;12.766;2024-01-07T10:46:54;2.60;;;2.40;;
14241;SDS011;7205;50.864;12.766;2024-01-07T10:49:22;3.20;;;3.00;;
14241;SDS011;7205;50.864;12.766;2024-01-07T10:51:54;3.03;;;2.73;;
14241;SDS011;7205;50.864;12.766;2024-01-07T10:54:29;2.43;;;2.23;;
14241;SDS011;7205;50.864;12.766;2024-01-07T10:56:59;2.57;;;2.37;;
14241;SDS011;7205;50.864;12.766;2024-01-07T10:59:31;3.93;;;3.20;;
14241;SDS011;7205;50.864;12.766;2024-01-07T11:02:00;2.47;;;2.27;;
14241;SDS011;7205;50.864;12.766;2024-01-07T11:04:30;2.60;;;2.40;;
14241;SDS011;7205;50.864;12.766;2024-01-07T11:07:09;3.47;;;1.93;;
14241;SDS011;7205;50.864;12.766;2024-01-07T11:09:46;2.87;;;2.30;;
14241;SDS011;7205;50.864;12.766;2024-01-07T11:12:22;2.47;;;2.30;;
14241;SDS011;7205;50.864;12.766;2024-01-07T11:14:49;2.50;;;2.30;;
14241;SDS011;7205;50.864;12.766;2024-01-07T11:20:12;2.40;;;2.20;;
14241;SDS011;7205;50.864;12.766;2024-01-07T11:22:45;1.93;;;1.83;;
14241;SDS011;7205;50.864;12.766;2024-01-07T11:25:27;2.10;;;2.00;;
14241;SDS011;7205;50.864;12.766;2024-01-07T11:27:57;2.70;;;2.27;;
14241;SDS011;7205;50.864;12.766;2024-01-07T11:30:24;2.80;;;2.53;;
14241;SDS011;7205;50.864;12.766;2024-01-07T11:32:57;2.60;;;2.40;;
14241;SDS011;7205;50.864;12.766;2024-01-07T11:38:27;3.27;;;2.97;;
14241;SDS011;7205;50.864;12.766;2024-01-07T11:40:55;3.10;;;2.80;;
14241;SDS011;7205;50.864;12.766;2024-01-07T11:43:25;2.80;;;2.60;;
14241;SDS011;7205;50.864;12.766;2024-01-07T11:45:52;3.53;;;2.50;;
14241;SDS011;7205;50.864;12.766;2024-01-07T11:48:19;2.33;;;2.13;;
14241;SDS011;7205;50.864;12.766;2024-01-07T11:50:46;2.40;;;2.20;;
14241;SDS011;7205;50.864;12.766;2024-01-07T11:53:13;2.37;;;2.23;;
14241;SDS011;7205;50.864;12.766;2024-01-07T11:55:40;2.60;;;2.40;;
14241;SDS011;7205;50.864;12.766;2024-01-07T11:58:07;2.50;;;2.40;;
14241;SDS011;7205;50.864;12.766;2024-01-07T12:00:35;3.10;;;2.80;;
14241;SDS011;7205;50.864;12.766;2024-01-07T12:03:03;2.80;;;2.60;;
14241;SDS011;7205;50.864;12.766;2024-01-07T12:05:30;2.57;;;2.37;;
14241;SDS011;7205;50.864;12.766;2024-01-07T12:07:57;1.93;;;1.80;;
14241;SDS011;7205;50.864;12.766;2024-01-07T12:10:26;2.70;;;2.40;;
14241;SDS011;7205;50.864;12.766;2024-01-07T12:12:54;3.20;;;2.90;;
14241;SDS011;7205;50.864;12.766;2024-01-07T12:15:22;2.83;;;2.30;;
14241;SDS011;7205;50.864;12.766;2024-01-07T12:17:57;2.87;;;2.63;;
14241;SDS011;7205;50.864;12.766;2024-01-07T12:20:26;2.87;;;2.60;;
14241;SDS011;7205;50.864;12.766;2024-01-07T12:23:05;2.47;;;2.27;;
14241;SDS011;7205;50.864;12.766;2024-01-07T12:25:35;2.57;;;2.20;;
14241;SDS011;7205;50.864;12.766;2024-01-07T12:30:53;2.50;;;2.30;;
14241;SDS011;7205;50.864;12.766;2024-01-07T12:33:22;2.73;;;2.53;;
14241;SDS011;7205;50.864;12.766;2024-01-07T12:36:06;2.53;;;2.33;;
14241;SDS011;7205;50.864;12.766;2024-01-07T12:38:33;2.67;;;2.47;;
14241;SDS011;7205;50.864;12.766;2024-01-07T12:41:03;2.43;;;2.23;;
14241;SDS011;7205;50.864;12.766;2024-01-07T12:43:30;2.43;;;2.00;;
14241;SDS011;7205;50.864;12.766;2024-01-07T12:45:57;1.80;;;1.70;;
14241;SDS011;7205;50.864;12.766;2024-01-07T12:48:32;1.70;;;1.60;;
14241;SDS011;7205;50.864;12.766;2024-01-07T12:50:59;2.30;;;2.10;;
14241;SDS011;7205;50.864;12.766;2024-01-07T12:53:26;2.13;;;1.93;;
14241;SDS011;7205;50.864;12.766;2024-01-07T12:55:54;1.70;;;1.60;;
14241;SDS011;7205;50.864;12.766;2024-01-07T12:58:21;5.77;;;2.20;;
14241;SDS011;7205;50.864;12.766;2024-01-07T13:00:51;2.10;;;1.90;;
14241;SDS011;7205;50.864;12.766;2024-01-07T13:03:18;2.43;;;2.23;;
14241;SDS011;7205;50.864;12.766;2024-01-07T13:05:55;3.10;;;2.30;;
14241;SDS011;7205;50.864;12.766;2024-01-07T13:08:21;2.07;;;1.93;;
14241;SDS011;7205;50.864;12.766;2024-01-07T13:10:51;1.43;;;1.33;;
14241;SDS011;7205;50.864;12.766;2024-01-07T13:13:22;2.93;;;1.90;;
14241;SDS011;7205;50.864;12.766;2024-01-07T13:15:49;2.80;;;2.00;;
14241;SDS011;7205;50.864;12.766;2024-01-07T13:18:16;1.97;;;1.87;;
14241;SDS011;7205;50.864;12.766;2024-01-07T13:20:43;2.80;;;2.40;;
14241;SDS011;7205;50.864;12.766;2024-01-07T13:23:11;2.47;;;2.27;;
14241;SDS011;7205;50.864;12.766;2024-01-07T13:25:38;4.93;;;1.90;;
14241;SDS011;7205;50.864;12.766;2024-01-07T13:28:05;2.40;;;1.80;;
14241;SDS011;7205;50.864;12.766;2024-01-07T13:30:35;1.83;;;1.73;;
14241;SDS011;7205;50.864;12.766;2024-01-07T13:33:03;1.67;;;1.57;;
14241;SDS011;7205;50.864;12.766;2024-01-07T13:35:30;1.90;;;1.80;;
14241;SDS011;7205;50.864;12.766;2024-01-07T13:37:57;1.97;;;1.60;;
14241;SDS011;7205;50.864;12.766;2024-01-07T13:40:25;1.93;;;1.70;;
14241;SDS011;7205;50.864;12.766;2024-01-07T13:42:52;1.67;;;1.53;;
14241;SDS011;7205;50.864;12.766;2024-01-07T13:45:19;1.60;;;1.50;;
14241;SDS011;7205;50.864;12.766;2024-01-07T13:47:48;1.60;;;1.50;;
14241;SDS011;7205;50.864;12.766;2024-01-07T13:50:15;1.33;;;1.23;;
14241;SDS011;7205;50.864;12.766;2024-01-07T13:52:41;1.50;;;1.40;;
14241;SDS011;7205;50.864;12.766;2024-01-07T13:55:09;1.50;;;1.37;;
14241;SDS011;7205;50.864;12.766;2024-01-07T13:57:37;1.33;;;1.23;;
14241;SDS011;7205;50.864;12.766;2024-01-07T14:00:04;1.40;;;1.30;;
14241;SDS011;7205;50.864;12.766;2024-01-07T14:02:34;0.87;;;0.87;;
14241;SDS011;7205;50.864;12.766;2024-01-07T14:05:03;1.43;;;1.33;;
14241;SDS011;7205;50.864;12.766;2024-01-07T14:07:31;1.97;;;1.87;;
14241;SDS011;7205;50.864;12.766;2024-01-07T14:09:59;1.47;;;1.30;;
14241;SDS011;7205;50.864;12.766;2024-01-07T14:12:28;2.00;;;1.90;;
14241;SDS011;7205;50.864;12.766;2024-01-07T14:14:56;1.67;;;1.57;;
14241;SDS011;7205;50.864;12.766;2024-01-07T14:17:24;1.57;;;1.37;;
14241;SDS011;7205;50.864;12.766;2024-01-07T14:19:51;1.37;;;1.27;;
14241;SDS011;7205;50.864;12.766;2024-01-07T14:22:18;1.70;;;1.60;;
14241;SDS011;7205;50.864;12.766;2024-01-07T14:24:45;1.60;;;1.50;;
14241;SDS011;7205;50.864;12.766;2024-01-07T14:27:13;1.60;;;1.50;;
14241;SDS011;7205;50.864;12.766;2024-01-07T14:29:40;2.30;;;1.70;;
14241;SDS011;7205;50.864;12.766;2024-01-07T14:32:09;1.83;;;1.73;;
14241;SDS011;7205;50.864;12.766;2024-01-07T14:34:37;2.23;;;2.10;;
14241;SDS011;7205;50.864;12.766;2024-01-07T14:37:06;2.60;;;2.40;;
14241;SDS011;7205;50.864;12.766;2024-01-07T14:39:34;2.30;;;2.10;;
14241;SDS011;7205;50.864;12.766;2024-01-07T14:42:01;1.93;;;1.83;;
14241;SDS011;7205;50.864;12.766;2024-01-07T14:44:28;1.63;;;1.53;;
14241;SDS011;7205;50.864;12.766;2024-01-07T14:46:55;1.97;;;1.73;;
14241;SDS011;7205;50.864;12.766;2024-01-07T14:49:24;1.67;;;1.57;;
14241;SDS011;7205;50.864;12.766;2024-01-07T14:51:51;1.73;;;1.63;;